sensor_id;sensor_type;location;lat;lon;timestamp;P1;durP1;ratioP1;P2;durP2;ratioP2
64938;SDS011;51453;47.738;7.420;2022-08-02T00:01:25;4.00;;;2.00;;
64938;SDS011;51453;47.738;7.420;2022-08-02T00:03:51;2.05;;;1.90;;
64938;SDS011;51453;47.738;7.420;2022-08-02T00:06:16;2.75;;;1.80;;
64938;SDS011;51453;47.738;7.420;2022-08-02T00:08:42;2.75;;;1.70;;
64938;SDS011;51453;47.738;7.420;2022-08-02T00:11:08;2.03;;;1.67;;
64938;SDS011;51453;47.738;7.420;2022-08-02T00:13:33;4.18;;;1.77;;
64938;SDS011;51453;47.738;7.420;2022-08-02T00:15:59;3.03;;;1.92;;
64938;SDS011;51453;47.738;7.420;2022-08-02T00:18:25;3.75;;;1.60;;
64938;SDS011;51453;47.738;7.420;2022-08-02T00:20:51;3.45;;;2.20;;
64938;SDS011;51453;47.738;7.420;2022-08-02T00:23:16;2.78;;;1.70;;
64938;SDS011;51453;47.738;7.420;2022-08-02T00:25:42;2.17;;;1.70;;
64938;SDS011;51453;47.738;7.420;2022-08-02T00:28:08;3.15;;;1.65;;
64938;SDS011;51453;47.738;7.420;2022-08-02T00:30:35;2.10;;;1.90;;
64938;SDS011;51453;47.738;7.420;2022-08-02T00:33:01;3.10;;;1.80;;
64938;SDS011;51453;47.738;7.420;2022-08-02T00:35:29;2.75;;;2.00;;
64938;SDS011;51453;47.738;7.420;2022-08-02T00:37:54;4.45;;;2.00;;
64938;SDS011;51453;47.738;7.420;2022-08-02T00:40:21;4.25;;;2.20;;
64938;SDS011;51453;47.738;7.420;2022-08-02T00:43:09;5.15;;;2.05;;
64938;SDS011;51453;47.738;7.420;2022-08-02T00:45:38;4.45;;;2.10;;
64938;SDS011;51453;47.738;7.420;2022-08-02T00:48:05;4.57;;;2.15;;
64938;SDS011;51453;47.738;7.420;2022-08-02T00:50:33;2.25;;;1.88;;
64938;SDS011;51453;47.738;7.420;2022-08-02T00:52:59;4.03;;;2.08;;
64938;SDS011;51453;47.738;7.420;2022-08-02T00:55:25;5.60;;;2.58;;
64938;SDS011;51453;47.738;7.420;2022-08-02T00:57:52;2.20;;;2.00;;
64938;SDS011;51453;47.738;7.420;2022-08-02T01:00:18;3.15;;;1.98;;
64938;SDS011;51453;47.738;7.420;2022-08-02T01:02:44;2.65;;;2.03;;
64938;SDS011;51453;47.738;7.420;2022-08-02T01:05:10;4.47;;;2.20;;
64938;SDS011;51453;47.738;7.420;2022-08-02T01:07:36;2.40;;;1.83;;
64938;SDS011;51453;47.738;7.420;2022-08-02T01:10:02;4.13;;;2.17;;
64938;SDS011;51453;47.738;7.420;2022-08-02T01:12:29;3.20;;;1.60;;
64938;SDS011;51453;47.738;7.420;2022-08-02T01:14:56;2.13;;;1.92;;
64938;SDS011;51453;47.738;7.420;2022-08-02T01:25:28;2.30;;;2.10;;
64938;SDS011;51453;47.738;7.420;2022-08-02T01:31:02;3.40;;;2.30;;
64938;SDS011;51453;47.738;7.420;2022-08-02T01:33:36;2.58;;;2.03;;
64938;SDS011;51453;47.738;7.420;2022-08-02T01:36:08;4.10;;;1.83;;
64938;SDS011;51453;47.738;7.420;2022-08-02T01:38:38;3.53;;;1.85;;
64938;SDS011;51453;47.738;7.420;2022-08-02T01:43:37;4.28;;;2.05;;
64938;SDS011;51453;47.738;7.420;2022-08-02T01:46:06;4.28;;;1.80;;
64938;SDS011;51453;47.738;7.420;2022-08-02T01:48:33;2.45;;;2.25;;
64938;SDS011;51453;47.738;7.420;2022-08-02T01:50:59;2.72;;;1.95;;
64938;SDS011;51453;47.738;7.420;2022-08-02T01:53:27;3.45;;;2.30;;
64938;SDS011;51453;47.738;7.420;2022-08-02T01:55:54;2.65;;;1.92;;
64938;SDS011;51453;47.738;7.420;2022-08-02T01:58:23;4.90;;;2.03;;
64938;SDS011;51453;47.738;7.420;2022-08-02T02:00:51;3.67;;;1.98;;
64938;SDS011;51453;47.738;7.420;2022-08-02T02:03:21;3.53;;;1.88;;
64938;SDS011;51453;47.738;7.420;2022-08-02T02:05:49;4.10;;;2.17;;
64938;SDS011;51453;47.738;7.420;2022-08-02T02:08:23;2.58;;;1.75;;
64938;SDS011;51453;47.738;7.420;2022-08-02T02:10:55;3.25;;;2.33;;
64938;SDS011;51453;47.738;7.420;2022-08-02T02:13:22;5.07;;;2.13;;
64938;SDS011;51453;47.738;7.420;2022-08-02T02:15:50;4.65;;;2.05;;
64938;SDS011;51453;47.738;7.420;2022-08-02T02:18:21;3.47;;;2.10;;
64938;SDS011;51453;47.738;7.420;2022-08-02T02:20:48;2.47;;;2.10;;
64938;SDS011;51453;47.738;7.420;2022-08-02T02:23:15;3.28;;;2.25;;
64938;SDS011;51453;47.738;7.420;2022-08-02T02:25:41;2.80;;;2.03;;
64938;SDS011;51453;47.738;7.420;2022-08-02T02:28:21;2.30;;;2.10;;
64938;SDS011;51453;47.738;7.420;2022-08-02T02:30:54;3.08;;;2.20;;
64938;SDS011;51453;47.738;7.420;2022-08-02T02:33:57;2.58;;;2.00;;
64938;SDS011;51453;47.738;7.420;2022-08-02T02:36:27;2.78;;;2.00;;
64938;SDS011;51453;47.738;7.420;2022-08-02T02:38:55;4.68;;;2.20;;
64938;SDS011;51453;47.738;7.420;2022-08-02T02:41:23;4.03;;;2.05;;
64938;SDS011;51453;47.738;7.420;2022-08-02T02:43:52;3.30;;;2.30;;
64938;SDS011;51453;47.738;7.420;2022-08-02T02:46:20;3.42;;;2.30;;
64938;SDS011;51453;47.738;7.420;2022-08-02T02:48:50;2.63;;;2.30;;
64938;SDS011;51453;47.738;7.420;2022-08-02T02:51:17;3.72;;;2.63;;
64938;SDS011;51453;47.738;7.420;2022-08-02T02:53:43;5.97;;;2.65;;
64938;SDS011;51453;47.738;7.420;2022-08-02T02:56:12;3.55;;;2.38;;
64938;SDS011;51453;47.738;7.420;2022-08-02T02:58:39;3.30;;;2.50;;
64938;SDS011;51453;47.738;7.420;2022-08-02T03:01:05;4.03;;;2.65;;
64938;SDS011;51453;47.738;7.420;2022-08-02T03:03:49;3.00;;;2.63;;
64938;SDS011;51453;47.738;7.420;2022-08-02T03:06:17;2.60;;;2.40;;
64938;SDS011;51453;47.738;7.420;2022-08-02T03:08:43;4.30;;;2.70;;
64938;SDS011;51453;47.738;7.420;2022-08-02T03:11:09;6.00;;;2.72;;
64938;SDS011;51453;47.738;7.420;2022-08-02T03:13:36;2.67;;;2.40;;
64938;SDS011;51453;47.738;7.420;2022-08-02T03:16:03;3.38;;;2.53;;
64938;SDS011;51453;47.738;7.420;2022-08-02T03:18:34;3.60;;;2.72;;
64938;SDS011;51453;47.738;7.420;2022-08-02T03:21:01;3.40;;;2.55;;
64938;SDS011;51453;47.738;7.420;2022-08-02T03:23:29;3.65;;;2.28;;
64938;SDS011;51453;47.738;7.420;2022-08-02T03:25:55;4.25;;;2.45;;
64938;SDS011;51453;47.738;7.420;2022-08-02T03:28:21;4.80;;;2.60;;
64938;SDS011;51453;47.738;7.420;2022-08-02T03:30:47;4.05;;;2.78;;
64938;SDS011;51453;47.738;7.420;2022-08-02T03:33:12;3.47;;;2.70;;
64938;SDS011;51453;47.738;7.420;2022-08-02T03:35:39;3.90;;;3.13;;
64938;SDS011;51453;47.738;7.420;2022-08-02T03:38:06;4.18;;;3.17;;
64938;SDS011;51453;47.738;7.420;2022-08-02T03:40:32;5.45;;;3.03;;
64938;SDS011;51453;47.738;7.420;2022-08-02T03:43:00;4.20;;;2.90;;
64938;SDS011;51453;47.738;7.420;2022-08-02T03:45:26;5.63;;;2.60;;
64938;SDS011;51453;47.738;7.420;2022-08-02T03:47:53;3.90;;;2.85;;
64938;SDS011;51453;47.738;7.420;2022-08-02T03:50:20;3.25;;;2.50;;
64938;SDS011;51453;47.738;7.420;2022-08-02T03:52:47;4.72;;;3.10;;
64938;SDS011;51453;47.738;7.420;2022-08-02T03:55:13;5.10;;;2.95;;
64938;SDS011;51453;47.738;7.420;2022-08-02T03:57:42;5.00;;;2.80;;
64938;SDS011;51453;47.738;7.420;2022-08-02T04:00:09;2.80;;;2.53;;
64938;SDS011;51453;47.738;7.420;2022-08-02T04:02:37;5.00;;;2.72;;
64938;SDS011;51453;47.738;7.420;2022-08-02T04:05:03;2.90;;;2.63;;
64938;SDS011;51453;47.738;7.420;2022-08-02T04:07:29;3.38;;;2.80;;
64938;SDS011;51453;47.738;7.420;2022-08-02T04:09:54;5.00;;;2.63;;
64938;SDS011;51453;47.738;7.420;2022-08-02T04:12:20;3.10;;;2.80;;
64938;SDS011;51453;47.738;7.420;2022-08-02T04:14:46;5.93;;;2.70;;
64938;SDS011;51453;47.738;7.420;2022-08-02T04:17:11;3.92;;;2.88;;
64938;SDS011;51453;47.738;7.420;2022-08-02T04:19:55;4.60;;;3.22;;
64938;SDS011;51453;47.738;7.420;2022-08-02T04:22:48;5.18;;;2.53;;
64938;SDS011;51453;47.738;7.420;2022-08-02T04:25:18;6.90;;;3.17;;
64938;SDS011;51453;47.738;7.420;2022-08-02T04:27:45;3.47;;;3.10;;
64938;SDS011;51453;47.738;7.420;2022-08-02T04:30:11;4.00;;;2.65;;
64938;SDS011;51453;47.738;7.420;2022-08-02T04:32:37;4.03;;;2.63;;
64938;SDS011;51453;47.738;7.420;2022-08-02T04:35:05;4.50;;;2.90;;
64938;SDS011;51453;47.738;7.420;2022-08-02T04:37:31;4.13;;;2.97;;
64938;SDS011;51453;47.738;7.420;2022-08-02T04:39:58;3.25;;;2.45;;
64938;SDS011;51453;47.738;7.420;2022-08-02T04:42:25;2.97;;;2.67;;
64938;SDS011;51453;47.738;7.420;2022-08-02T04:44:51;2.60;;;2.40;;
64938;SDS011;51453;47.738;7.420;2022-08-02T04:47:18;4.07;;;2.50;;
64938;SDS011;51453;47.738;7.420;2022-08-02T04:49:44;4.00;;;2.55;;
64938;SDS011;51453;47.738;7.420;2022-08-02T04:52:10;4.30;;;2.58;;
64938;SDS011;51453;47.738;7.420;2022-08-02T04:54:36;2.90;;;2.13;;
64938;SDS011;51453;47.738;7.420;2022-08-02T04:57:02;2.78;;;2.30;;
64938;SDS011;51453;47.738;7.420;2022-08-02T04:59:48;5.40;;;2.40;;
64938;SDS011;51453;47.738;7.420;2022-08-02T05:02:13;2.50;;;1.95;;
64938;SDS011;51453;47.738;7.420;2022-08-02T05:04:39;2.78;;;2.40;;
64938;SDS011;51453;47.738;7.420;2022-08-02T05:07:05;2.40;;;2.10;;
64938;SDS011;51453;47.738;7.420;2022-08-02T05:09:30;4.45;;;2.30;;
64938;SDS011;51453;47.738;7.420;2022-08-02T05:11:56;5.88;;;2.42;;
64938;SDS011;51453;47.738;7.420;2022-08-02T05:14:22;2.75;;;2.10;;
64938;SDS011;51453;47.738;7.420;2022-08-02T05:16:47;3.33;;;2.25;;
64938;SDS011;51453;47.738;7.420;2022-08-02T05:19:13;4.70;;;2.15;;
64938;SDS011;51453;47.738;7.420;2022-08-02T05:21:38;7.22;;;2.40;;
64938;SDS011;51453;47.738;7.420;2022-08-02T05:24:04;4.72;;;2.42;;
64938;SDS011;51453;47.738;7.420;2022-08-02T05:26:30;2.58;;;2.08;;
64938;SDS011;51453;47.738;7.420;2022-08-02T05:28:56;3.53;;;2.05;;
64938;SDS011;51453;47.738;7.420;2022-08-02T05:31:22;2.67;;;2.05;;
64938;SDS011;51453;47.738;7.420;2022-08-02T05:33:47;3.33;;;2.45;;
64938;SDS011;51453;47.738;7.420;2022-08-02T05:36:13;4.78;;;2.33;;
64938;SDS011;51453;47.738;7.420;2022-08-02T05:38:39;2.75;;;2.40;;
64938;SDS011;51453;47.738;7.420;2022-08-02T05:41:05;2.60;;;2.25;;
64938;SDS011;51453;47.738;7.420;2022-08-02T05:43:31;2.42;;;1.90;;
64938;SDS011;51453;47.738;7.420;2022-08-02T05:45:57;3.45;;;2.25;;
64938;SDS011;51453;47.738;7.420;2022-08-02T05:48:22;2.53;;;2.22;;
64938;SDS011;51453;47.738;7.420;2022-08-02T05:50:49;3.28;;;2.30;;
64938;SDS011;51453;47.738;7.420;2022-08-02T05:53:37;2.72;;;2.40;;
64938;SDS011;51453;47.738;7.420;2022-08-02T05:59:02;4.47;;;2.60;;
64938;SDS011;51453;47.738;7.420;2022-08-02T06:01:34;3.53;;;2.60;;
64938;SDS011;51453;47.738;7.420;2022-08-02T06:04:04;5.75;;;2.03;;
64938;SDS011;51453;47.738;7.420;2022-08-02T06:06:32;11.77;;;2.22;;
64938;SDS011;51453;47.738;7.420;2022-08-02T06:09:19;2.50;;;2.22;;
64938;SDS011;51453;47.738;7.420;2022-08-02T06:11:45;3.38;;;1.90;;
64938;SDS011;51453;47.738;7.420;2022-08-02T06:14:15;3.13;;;2.22;;
64938;SDS011;51453;47.738;7.420;2022-08-02T06:16:43;4.78;;;2.25;;
64938;SDS011;51453;47.738;7.420;2022-08-02T06:19:12;3.53;;;2.10;;
64938;SDS011;51453;47.738;7.420;2022-08-02T06:21:39;5.30;;;2.30;;
64938;SDS011;51453;47.738;7.420;2022-08-02T06:24:09;6.15;;;2.00;;
64938;SDS011;51453;47.738;7.420;2022-08-02T06:26:36;5.20;;;2.20;;
64938;SDS011;51453;47.738;7.420;2022-08-02T06:29:02;3.33;;;2.55;;
64938;SDS011;51453;47.738;7.420;2022-08-02T06:31:28;3.58;;;2.85;;
64938;SDS011;51453;47.738;7.420;2022-08-02T06:33:54;2.85;;;2.38;;
64938;SDS011;51453;47.738;7.420;2022-08-02T06:39:20;3.80;;;3.15;;
64938;SDS011;51453;47.738;7.420;2022-08-02T06:42:02;3.97;;;2.75;;
64938;SDS011;51453;47.738;7.420;2022-08-02T06:44:35;3.20;;;2.90;;
64938;SDS011;51453;47.738;7.420;2022-08-02T06:47:02;3.95;;;2.88;;
64938;SDS011;51453;47.738;7.420;2022-08-02T06:49:28;3.85;;;3.03;;
64938;SDS011;51453;47.738;7.420;2022-08-02T06:51:54;7.50;;;4.00;;
64938;SDS011;51453;47.738;7.420;2022-08-02T06:54:20;4.65;;;3.40;;
64938;SDS011;51453;47.738;7.420;2022-08-02T06:56:46;4.22;;;3.30;;
64938;SDS011;51453;47.738;7.420;2022-08-02T06:59:12;5.75;;;3.10;;
64938;SDS011;51453;47.738;7.420;2022-08-02T07:01:38;6.32;;;3.35;;
64938;SDS011;51453;47.738;7.420;2022-08-02T07:04:04;10.52;;;3.70;;
64938;SDS011;51453;47.738;7.420;2022-08-02T07:06:29;8.43;;;3.70;;
64938;SDS011;51453;47.738;7.420;2022-08-02T07:08:55;6.43;;;2.88;;
64938;SDS011;51453;47.738;7.420;2022-08-02T07:11:21;3.95;;;3.00;;
64938;SDS011;51453;47.738;7.420;2022-08-02T07:13:48;4.80;;;3.22;;
64938;SDS011;51453;47.738;7.420;2022-08-02T07:16:13;4.15;;;2.80;;
64938;SDS011;51453;47.738;7.420;2022-08-02T07:18:39;3.47;;;2.60;;
64938;SDS011;51453;47.738;7.420;2022-08-02T07:21:05;6.85;;;2.83;;
64938;SDS011;51453;47.738;7.420;2022-08-02T07:23:31;3.95;;;2.90;;
64938;SDS011;51453;47.738;7.420;2022-08-02T07:25:57;8.20;;;3.47;;
64938;SDS011;51453;47.738;7.420;2022-08-02T07:28:23;4.45;;;3.42;;
64938;SDS011;51453;47.738;7.420;2022-08-02T07:30:49;3.95;;;3.40;;
64938;SDS011;51453;47.738;7.420;2022-08-02T07:33:14;4.40;;;3.13;;
64938;SDS011;51453;47.738;7.420;2022-08-02T07:35:40;3.95;;;3.53;;
64938;SDS011;51453;47.738;7.420;2022-08-02T07:38:06;3.67;;;3.33;;
64938;SDS011;51453;47.738;7.420;2022-08-02T07:40:32;5.43;;;2.90;;
64938;SDS011;51453;47.738;7.420;2022-08-02T07:42:58;4.90;;;2.80;;
64938;SDS011;51453;47.738;7.420;2022-08-02T07:45:24;2.47;;;2.28;;
64938;SDS011;51453;47.738;7.420;2022-08-02T07:47:51;4.60;;;1.80;;
64938;SDS011;51453;47.738;7.420;2022-08-02T07:50:17;3.13;;;2.38;;
64938;SDS011;51453;47.738;7.420;2022-08-02T07:52:45;2.90;;;2.17;;
64938;SDS011;51453;47.738;7.420;2022-08-02T07:55:12;4.82;;;2.22;;
64938;SDS011;51453;47.738;7.420;2022-08-02T07:57:39;3.33;;;2.33;;
64938;SDS011;51453;47.738;7.420;2022-08-02T08:00:05;3.05;;;2.55;;
64938;SDS011;51453;47.738;7.420;2022-08-02T08:02:35;4.47;;;1.90;;
64938;SDS011;51453;47.738;7.420;2022-08-02T08:05:02;3.33;;;1.40;;
64938;SDS011;51453;47.738;7.420;2022-08-02T08:07:28;2.60;;;1.90;;
64938;SDS011;51453;47.738;7.420;2022-08-02T08:09:54;4.65;;;2.03;;
64938;SDS011;51453;47.738;7.420;2022-08-02T08:12:19;5.13;;;1.95;;
64938;SDS011;51453;47.738;7.420;2022-08-02T08:14:45;4.18;;;2.10;;
64938;SDS011;51453;47.738;7.420;2022-08-02T08:17:11;6.72;;;2.22;;
64938;SDS011;51453;47.738;7.420;2022-08-02T08:19:37;2.10;;;1.90;;
64938;SDS011;51453;47.738;7.420;2022-08-02T08:22:02;4.78;;;2.13;;
64938;SDS011;51453;47.738;7.420;2022-08-02T08:24:28;5.65;;;1.77;;
64938;SDS011;51453;47.738;7.420;2022-08-02T08:26:55;6.30;;;1.80;;
64938;SDS011;51453;47.738;7.420;2022-08-02T08:29:21;4.85;;;1.80;;
64938;SDS011;51453;47.738;7.420;2022-08-02T08:31:47;6.53;;;2.45;;
64938;SDS011;51453;47.738;7.420;2022-08-02T08:34:13;2.78;;;2.00;;
64938;SDS011;51453;47.738;7.420;2022-08-02T08:36:39;5.47;;;2.28;;
64938;SDS011;51453;47.738;7.420;2022-08-02T08:39:06;2.53;;;1.77;;
64938;SDS011;51453;47.738;7.420;2022-08-02T08:41:33;3.83;;;1.70;;
64938;SDS011;51453;47.738;7.420;2022-08-02T08:44:00;2.60;;;1.80;;
64938;SDS011;51453;47.738;7.420;2022-08-02T08:46:27;5.82;;;2.47;;
64938;SDS011;51453;47.738;7.420;2022-08-02T08:49:00;3.72;;;2.00;;
64938;SDS011;51453;47.738;7.420;2022-08-02T08:51:44;2.55;;;1.60;;
64938;SDS011;51453;47.738;7.420;2022-08-02T08:54:11;3.47;;;1.73;;
64938;SDS011;51453;47.738;7.420;2022-08-02T08:56:40;4.07;;;1.77;;
64938;SDS011;51453;47.738;7.420;2022-08-02T08:59:07;3.50;;;1.80;;
64938;SDS011;51453;47.738;7.420;2022-08-02T09:01:33;4.47;;;1.65;;
64938;SDS011;51453;47.738;7.420;2022-08-02T09:03:59;1.67;;;1.58;;
64938;SDS011;51453;47.738;7.420;2022-08-02T09:06:25;1.63;;;1.52;;
64938;SDS011;51453;47.738;7.420;2022-08-02T09:08:51;1.65;;;1.50;;
64938;SDS011;51453;47.738;7.420;2022-08-02T09:11:24;2.50;;;1.30;;
64938;SDS011;51453;47.738;7.420;2022-08-02T09:18:56;3.30;;;1.20;;
64938;SDS011;51453;47.738;7.420;2022-08-02T09:21:23;4.32;;;1.80;;
64938;SDS011;51453;47.738;7.420;2022-08-02T09:23:57;1.60;;;1.30;;
64938;SDS011;51453;47.738;7.420;2022-08-02T09:26:24;1.45;;;1.15;;
64938;SDS011;51453;47.738;7.420;2022-08-02T09:28:51;2.88;;;1.20;;
64938;SDS011;51453;47.738;7.420;2022-08-02T09:31:25;2.40;;;1.40;;
64938;SDS011;51453;47.738;7.420;2022-08-02T09:33:52;6.18;;;1.58;;
64938;SDS011;51453;47.738;7.420;2022-08-02T09:36:19;3.88;;;1.52;;
64938;SDS011;51453;47.738;7.420;2022-08-02T09:38:59;2.00;;;1.63;;
64938;SDS011;51453;47.738;7.420;2022-08-02T09:41:28;1.35;;;1.25;;
64938;SDS011;51453;47.738;7.420;2022-08-02T09:43:56;4.28;;;1.40;;
64938;SDS011;51453;47.738;7.420;2022-08-02T09:46:23;1.50;;;1.35;;
64938;SDS011;51453;47.738;7.420;2022-08-02T09:51:24;5.68;;;1.52;;
64938;SDS011;51453;47.738;7.420;2022-08-02T09:54:14;5.05;;;1.50;;
64938;SDS011;51453;47.738;7.420;2022-08-02T09:56:45;3.05;;;1.55;;
64938;SDS011;51453;47.738;7.420;2022-08-02T09:59:13;3.17;;;1.70;;
64938;SDS011;51453;47.738;7.420;2022-08-02T10:01:40;3.75;;;1.70;;
64938;SDS011;51453;47.738;7.420;2022-08-02T10:04:09;3.17;;;1.52;;
64938;SDS011;51453;47.738;7.420;2022-08-02T10:06:39;2.17;;;1.50;;
64938;SDS011;51453;47.738;7.420;2022-08-02T10:09:10;3.58;;;1.33;;
64938;SDS011;51453;47.738;7.420;2022-08-02T10:11:36;4.20;;;1.40;;
64938;SDS011;51453;47.738;7.420;2022-08-02T10:14:03;2.15;;;1.65;;
64938;SDS011;51453;47.738;7.420;2022-08-02T10:16:32;1.85;;;1.50;;
64938;SDS011;51453;47.738;7.420;2022-08-02T10:18:59;1.85;;;1.20;;
64938;SDS011;51453;47.738;7.420;2022-08-02T10:21:30;1.77;;;1.20;;
64938;SDS011;51453;47.738;7.420;2022-08-02T10:24:12;1.58;;;1.42;;
64938;SDS011;51453;47.738;7.420;2022-08-02T10:26:51;6.78;;;1.60;;
64938;SDS011;51453;47.738;7.420;2022-08-02T10:29:18;2.08;;;1.27;;
64938;SDS011;51453;47.738;7.420;2022-08-02T10:34:19;3.08;;;1.30;;
64938;SDS011;51453;47.738;7.420;2022-08-02T10:36:48;4.07;;;1.15;;
64938;SDS011;51453;47.738;7.420;2022-08-02T10:39:15;2.25;;;1.20;;
64938;SDS011;51453;47.738;7.420;2022-08-02T10:41:42;1.05;;;1.05;;
64938;SDS011;51453;47.738;7.420;2022-08-02T10:44:08;3.83;;;1.50;;
64938;SDS011;51453;47.738;7.420;2022-08-02T10:49:54;1.20;;;1.10;;
64938;SDS011;51453;47.738;7.420;2022-08-02T10:52:22;5.60;;;1.50;;
64938;SDS011;51453;47.738;7.420;2022-08-02T10:54:51;1.25;;;1.15;;
64938;SDS011;51453;47.738;7.420;2022-08-02T10:57:24;1.70;;;1.20;;
64938;SDS011;51453;47.738;7.420;2022-08-02T11:00:03;2.25;;;1.30;;
64938;SDS011;51453;47.738;7.420;2022-08-02T11:07:47;1.50;;;1.02;;
64938;SDS011;51453;47.738;7.420;2022-08-02T11:13:02;2.95;;;0.90;;
64938;SDS011;51453;47.738;7.420;2022-08-02T11:15:45;5.85;;;1.00;;
64938;SDS011;51453;47.738;7.420;2022-08-02T11:18:25;3.22;;;1.10;;
64938;SDS011;51453;47.738;7.420;2022-08-02T11:23:50;2.90;;;1.05;;
64938;SDS011;51453;47.738;7.420;2022-08-02T11:28:54;1.17;;;0.85;;
64938;SDS011;51453;47.738;7.420;2022-08-02T11:31:28;1.00;;;0.90;;
64938;SDS011;51453;47.738;7.420;2022-08-02T11:34:03;1.35;;;1.10;;
64938;SDS011;51453;47.738;7.420;2022-08-02T11:36:29;1.13;;;0.82;;
64938;SDS011;51453;47.738;7.420;2022-08-02T11:39:11;1.38;;;0.90;;
64938;SDS011;51453;47.738;7.420;2022-08-02T11:41:38;1.33;;;0.60;;
64938;SDS011;51453;47.738;7.420;2022-08-02T11:44:04;0.85;;;0.80;;
64938;SDS011;51453;47.738;7.420;2022-08-02T11:46:29;0.90;;;0.80;;
64938;SDS011;51453;47.738;7.420;2022-08-02T11:48:55;1.10;;;0.80;;
64938;SDS011;51453;47.738;7.420;2022-08-02T11:51:21;0.68;;;0.68;;
64938;SDS011;51453;47.738;7.420;2022-08-02T11:56:27;1.17;;;0.70;;
64938;SDS011;51453;47.738;7.420;2022-08-02T11:59:04;4.45;;;0.80;;
64938;SDS011;51453;47.738;7.420;2022-08-02T12:01:32;1.05;;;0.75;;
64938;SDS011;51453;47.738;7.420;2022-08-02T12:04:03;1.90;;;0.60;;
64938;SDS011;51453;47.738;7.420;2022-08-02T12:06:30;0.57;;;0.57;;
64938;SDS011;51453;47.738;7.420;2022-08-02T12:11:29;0.70;;;0.70;;
64938;SDS011;51453;47.738;7.420;2022-08-02T12:13:55;1.50;;;0.70;;
64938;SDS011;51453;47.738;7.420;2022-08-02T12:16:21;0.60;;;0.45;;
64938;SDS011;51453;47.738;7.420;2022-08-02T12:19:07;1.85;;;0.60;;
64938;SDS011;51453;47.738;7.420;2022-08-02T12:21:48;1.92;;;0.50;;
64938;SDS011;51453;47.738;7.420;2022-08-02T12:24:30;9.98;;;0.88;;
64938;SDS011;51453;47.738;7.420;2022-08-02T12:26:55;0.63;;;0.50;;
64938;SDS011;51453;47.738;7.420;2022-08-02T12:29:39;2.05;;;0.47;;
64938;SDS011;51453;47.738;7.420;2022-08-02T12:32:07;0.40;;;0.40;;
64938;SDS011;51453;47.738;7.420;2022-08-02T12:34:33;0.82;;;0.70;;
64938;SDS011;51453;47.738;7.420;2022-08-02T12:39:41;1.25;;;0.60;;
64938;SDS011;51453;47.738;7.420;2022-08-02T12:42:10;1.58;;;0.40;;
64938;SDS011;51453;47.738;7.420;2022-08-02T12:44:38;1.17;;;0.57;;
64938;SDS011;51453;47.738;7.420;2022-08-02T12:47:22;0.57;;;0.55;;
64938;SDS011;51453;47.738;7.420;2022-08-02T12:52:48;0.57;;;0.57;;
64938;SDS011;51453;47.738;7.420;2022-08-02T12:55:18;2.88;;;0.70;;
64938;SDS011;51453;47.738;7.420;2022-08-02T12:57:53;0.82;;;0.80;;
64938;SDS011;51453;47.738;7.420;2022-08-02T13:00:27;3.50;;;0.63;;
64938;SDS011;51453;47.738;7.420;2022-08-02T13:02:55;0.68;;;0.68;;
64938;SDS011;51453;47.738;7.420;2022-08-02T13:05:21;12.90;;;1.10;;
64938;SDS011;51453;47.738;7.420;2022-08-02T13:07:48;1.70;;;0.60;;
64938;SDS011;51453;47.738;7.420;2022-08-02T13:10:14;2.22;;;0.80;;
64938;SDS011;51453;47.738;7.420;2022-08-02T13:12:40;0.85;;;0.60;;
64938;SDS011;51453;47.738;7.420;2022-08-02T13:15:06;0.55;;;0.55;;
64938;SDS011;51453;47.738;7.420;2022-08-02T13:17:33;1.65;;;0.40;;
64938;SDS011;51453;47.738;7.420;2022-08-02T13:19:58;1.77;;;0.75;;
64938;SDS011;51453;47.738;7.420;2022-08-02T13:22:24;0.45;;;0.45;;
64938;SDS011;51453;47.738;7.420;2022-08-02T13:24:50;1.27;;;0.65;;
64938;SDS011;51453;47.738;7.420;2022-08-02T13:27:16;1.95;;;0.82;;
64938;SDS011;51453;47.738;7.420;2022-08-02T13:29:42;0.60;;;0.60;;
64938;SDS011;51453;47.738;7.420;2022-08-02T13:32:08;1.50;;;0.73;;
64938;SDS011;51453;47.738;7.420;2022-08-02T13:34:34;30.73;;;2.38;;
64938;SDS011;51453;47.738;7.420;2022-08-02T13:37:01;5.28;;;0.93;;
64938;SDS011;51453;47.738;7.420;2022-08-02T13:39:27;1.08;;;0.70;;
64938;SDS011;51453;47.738;7.420;2022-08-02T13:41:53;0.60;;;0.60;;
64938;SDS011;51453;47.738;7.420;2022-08-02T13:44:19;1.75;;;0.68;;
64938;SDS011;51453;47.738;7.420;2022-08-02T13:46:45;3.40;;;0.80;;
64938;SDS011;51453;47.738;7.420;2022-08-02T13:49:14;3.17;;;0.80;;
64938;SDS011;51453;47.738;7.420;2022-08-02T13:51:40;1.27;;;0.80;;
64938;SDS011;51453;47.738;7.420;2022-08-02T13:54:06;0.90;;;0.70;;
64938;SDS011;51453;47.738;7.420;2022-08-02T13:56:32;1.67;;;0.80;;
64938;SDS011;51453;47.738;7.420;2022-08-02T13:58:57;0.50;;;0.50;;
64938;SDS011;51453;47.738;7.420;2022-08-02T14:01:23;1.25;;;0.70;;
64938;SDS011;51453;47.738;7.420;2022-08-02T14:03:50;0.75;;;0.60;;
64938;SDS011;51453;47.738;7.420;2022-08-02T14:06:18;1.15;;;0.73;;
64938;SDS011;51453;47.738;7.420;2022-08-02T14:08:47;1.85;;;0.63;;
64938;SDS011;51453;47.738;7.420;2022-08-02T14:11:13;2.17;;;0.70;;
64938;SDS011;51453;47.738;7.420;2022-08-02T14:13:38;1.38;;;0.70;;
64938;SDS011;51453;47.738;7.420;2022-08-02T14:16:04;0.85;;;0.85;;
64938;SDS011;51453;47.738;7.420;2022-08-02T14:18:30;1.35;;;0.70;;
64938;SDS011;51453;47.738;7.420;2022-08-02T14:20:56;1.10;;;0.70;;
64938;SDS011;51453;47.738;7.420;2022-08-02T14:23:22;1.08;;;0.70;;
64938;SDS011;51453;47.738;7.420;2022-08-02T14:25:48;21.67;;;1.40;;
64938;SDS011;51453;47.738;7.420;2022-08-02T14:28:14;2.92;;;0.80;;
64938;SDS011;51453;47.738;7.420;2022-08-02T14:30:40;1.33;;;0.70;;
64938;SDS011;51453;47.738;7.420;2022-08-02T14:33:06;0.77;;;0.77;;
64938;SDS011;51453;47.738;7.420;2022-08-02T14:35:32;2.33;;;1.13;;
64938;SDS011;51453;47.738;7.420;2022-08-02T14:37:58;1.90;;;0.70;;
64938;SDS011;51453;47.738;7.420;2022-08-02T14:40:24;1.23;;;0.80;;
64938;SDS011;51453;47.738;7.420;2022-08-02T14:42:50;0.88;;;0.60;;
64938;SDS011;51453;47.738;7.420;2022-08-02T14:45:17;0.50;;;0.50;;
64938;SDS011;51453;47.738;7.420;2022-08-02T14:47:46;2.50;;;0.90;;
64938;SDS011;51453;47.738;7.420;2022-08-02T14:50:13;1.45;;;0.70;;
64938;SDS011;51453;47.738;7.420;2022-08-02T14:52:41;0.73;;;0.70;;
64938;SDS011;51453;47.738;7.420;2022-08-02T14:55:06;0.70;;;0.70;;
64938;SDS011;51453;47.738;7.420;2022-08-02T14:57:32;0.90;;;0.70;;
64938;SDS011;51453;47.738;7.420;2022-08-02T14:59:58;1.02;;;0.75;;
64938;SDS011;51453;47.738;7.420;2022-08-02T15:02:28;1.02;;;0.90;;
64938;SDS011;51453;47.738;7.420;2022-08-02T15:04:54;0.90;;;0.90;;
64938;SDS011;51453;47.738;7.420;2022-08-02T15:07:20;1.90;;;0.95;;
64938;SDS011;51453;47.738;7.420;2022-08-02T15:09:46;1.35;;;0.65;;
64938;SDS011;51453;47.738;7.420;2022-08-02T15:12:12;65.35;;;4.78;;
64938;SDS011;51453;47.738;7.420;2022-08-02T15:14:38;1.20;;;0.90;;
64938;SDS011;51453;47.738;7.420;2022-08-02T15:17:04;2.05;;;0.88;;
64938;SDS011;51453;47.738;7.420;2022-08-02T15:19:31;3.47;;;0.70;;
64938;SDS011;51453;47.738;7.420;2022-08-02T15:21:57;1.33;;;0.73;;
64938;SDS011;51453;47.738;7.420;2022-08-02T15:24:23;1.15;;;0.80;;
64938;SDS011;51453;47.738;7.420;2022-08-02T15:26:49;3.63;;;1.00;;
64938;SDS011;51453;47.738;7.420;2022-08-02T15:29:16;1.40;;;1.00;;
64938;SDS011;51453;47.738;7.420;2022-08-02T15:31:42;0.82;;;0.73;;
64938;SDS011;51453;47.738;7.420;2022-08-02T15:34:08;2.40;;;0.80;;
64938;SDS011;51453;47.738;7.420;2022-08-02T15:36:34;0.80;;;0.65;;
64938;SDS011;51453;47.738;7.420;2022-08-02T15:38:59;2.13;;;0.82;;
64938;SDS011;51453;47.738;7.420;2022-08-02T15:41:25;9.35;;;1.73;;
64938;SDS011;51453;47.738;7.420;2022-08-02T15:43:51;1.98;;;0.90;;
64938;SDS011;51453;47.738;7.420;2022-08-02T15:46:17;1.05;;;0.93;;
64938;SDS011;51453;47.738;7.420;2022-08-02T15:48:43;3.60;;;0.90;;
64938;SDS011;51453;47.738;7.420;2022-08-02T15:51:09;5.93;;;1.10;;